Schedule Details


Flight Number: CTN301
Departure: Eleftherios Venizelos Intl (LGAV) at 19:05
Arrival: Cilipi (LDDU) at 19:55
Route: RIMAX UL613 XANIS L613 YNN UL611 VAKSU L611 LOKRU

Weather Information
LGAV 221550Z 03014KT CAVOK 20/11 Q1019 NOSIG
LDDU 221600Z 13008KT 100V160 CAVOK 20/12 Q1019 NOSIG
Schedule Frequency

Route Map